createdAt,value
2023-02-05T00:00:49.867Z,100353.91
2023-02-05T00:03:16.462Z,100356.31
2023-02-05T00:05:43.292Z,100353.91
2023-02-05T00:08:09.890Z,100341.22
2023-02-05T00:10:36.533Z,100349.84
2023-02-05T00:13:03.168Z,100356.88
2023-02-05T00:15:29.738Z,100347.16
2023-02-05T00:17:56.292Z,100351.72
2023-02-05T00:20:22.851Z,100339.31
2023-02-05T00:22:49.417Z,100346.06
2023-02-05T00:25:15.989Z,100340.66
2023-02-05T00:27:42.591Z,100333.09
2023-02-05T00:30:09.889Z,100335.28
2023-02-05T00:32:37.369Z,100327.47
2023-02-05T00:35:04.160Z,100329.31
2023-02-05T00:40:16.520Z,100332.56
2023-02-05T00:42:43.033Z,100327.72
2023-02-05T00:45:09.957Z,100335.56
2023-02-05T00:47:36.488Z,100331.19
2023-02-05T00:50:03.345Z,100330.94
2023-02-05T00:52:29.989Z,100333.09
2023-02-05T00:54:56.598Z,100326.38
2023-02-05T00:57:24.820Z,100335.25
2023-02-05T00:59:52.500Z,100332.56
2023-02-05T01:02:25.278Z,100339.59
2023-02-05T01:04:52.458Z,100332.03
2023-02-05T01:07:20.338Z,100323.94
2023-02-05T01:09:46.887Z,100319.06
2023-02-05T01:12:14.441Z,100312.59
2023-02-05T01:14:42.792Z,100320.69
2023-02-05T01:17:09.558Z,100314.75
2023-02-05T01:19:37.109Z,100322.31
2023-02-05T01:22:04.854Z,100314.22
2023-02-05T01:24:31.845Z,100305.56
2023-02-05T01:26:58.901Z,100300.97
2023-02-05T01:29:28.403Z,100293.16
2023-02-05T01:34:33.649Z,100297.44
2023-02-05T01:37:00.238Z,100297.47
2023-02-05T01:39:26.785Z,100306.09
2023-02-05T01:41:53.329Z,100305.56
2023-02-05T01:44:25.232Z,100287.50
2023-02-05T01:46:54.369Z,100290.72
2023-02-05T01:49:28.397Z,100281.25
2023-02-05T01:51:58.551Z,100288.28
2023-02-05T02:02:26.942Z,100275.88
2023-02-05T02:04:58.349Z,100271.00
2023-02-05T02:07:25.282Z,100262.34
2023-02-05T02:09:53.628Z,100265.59
2023-02-05T02:12:25.225Z,100257.78
2023-02-05T02:14:55.705Z,100263.72
2023-02-05T02:17:23.609Z,100260.22
2023-02-05T02:20:04.284Z,100252.91
2023-02-05T02:22:55.322Z,100254.25
2023-02-05T02:25:30.260Z,100248.34
2023-02-05T02:28:02.938Z,100242.41
2023-02-05T02:30:44.145Z,100239.97
2023-02-05T02:33:27.536Z,100241.84
2023-02-05T02:36:02.532Z,100239.69
2023-02-05T02:38:49.357Z,100236.47
2023-02-05T02:41:25.329Z,100234.56
2023-02-05T02:44:11.775Z,100232.41
2023-02-05T02:46:43.192Z,100234.84
2023-02-05T02:49:16.978Z,100235.94
2023-02-05T02:51:45.010Z,100237.00
2023-02-05T02:54:16.754Z,100234.84
2023-02-05T02:56:45.151Z,100230.53
2023-02-05T02:59:18.472Z,100229.44
2023-02-05T03:01:53.933Z,100226.47
2023-02-05T03:04:45.402Z,100230.50
2023-02-05T03:07:18.921Z,100222.97
2023-02-05T03:10:00.546Z,100220.00
2023-02-05T03:15:05.848Z,100217.31
2023-02-05T03:17:32.619Z,100216.50
2023-02-05T03:20:29.863Z,100223.50
2023-02-05T03:22:56.933Z,100216.22
2023-02-05T03:25:26.866Z,100212.16
2023-02-05T03:27:54.587Z,100207.56
2023-02-05T03:30:22.591Z,100218.38
2023-02-05T03:33:01.162Z,100217.56
2023-02-05T03:35:34.059Z,100211.63
2023-02-05T03:38:14.120Z,100198.66
2023-02-05T03:40:46.615Z,100200.28
2023-02-05T03:43:50.373Z,100190.56
2023-02-05T03:46:31.261Z,100188.72
2023-02-05T03:49:16.191Z,100192.22
2023-02-05T03:52:07.885Z,100192.22
2023-02-05T03:55:19.125Z,100186.56
2023-02-05T03:57:59.216Z,100193.84
2023-02-05T04:00:27.005Z,100191.41
2023-02-05T04:02:53.830Z,100193.56
2023-02-05T04:07:54.971Z,100178.44
2023-02-05T04:10:21.520Z,100174.63
2023-02-05T04:12:48.058Z,100166.84
2023-02-05T04:15:14.915Z,100170.06
2023-02-05T04:20:14.498Z,100165.22
2023-02-05T04:22:41.065Z,100178.41
2023-02-05T04:25:07.782Z,100180.31
2023-02-05T04:27:34.348Z,100167.91
2023-02-05T04:30:00.904Z,100167.91
2023-02-05T04:35:06.744Z,100170.34
2023-02-05T04:37:33.295Z,100177.38
2023-02-05T04:39:59.907Z,100171.97
2023-02-05T04:42:26.449Z,100162.00
2023-02-05T04:44:54.347Z,100171.16
2023-02-05T04:47:20.927Z,100170.88
2023-02-05T04:49:47.420Z,100171.72
2023-02-05T04:52:13.924Z,100174.94
2023-02-05T04:54:40.465Z,100173.88
2023-02-05T04:57:06.955Z,100171.97
2023-02-05T04:59:33.530Z,100168.19
2023-02-05T05:02:00.367Z,100179.53
2023-02-05T05:04:27.051Z,100169.28
2023-02-05T05:06:53.587Z,100166.84
2023-02-05T05:11:57.840Z,100169.81
2023-02-05T05:14:24.537Z,100177.09
2023-02-05T05:16:51.039Z,100185.47
2023-02-05T05:19:17.531Z,100183.56
2023-02-05T05:21:44.198Z,100183.03
2023-02-05T05:24:10.702Z,100183.59
2023-02-05T05:26:39.340Z,100191.69
2023-02-05T05:29:06.348Z,100193.56
2023-02-05T05:34:11.235Z,100186.25
2023-02-05T05:36:40.065Z,100188.69
2023-02-05T05:39:25.327Z,100190.31
2023-02-05T05:42:10.432Z,100196.78
2023-02-05T05:44:36.943Z,100193.28
2023-02-05T05:47:03.891Z,100199.22
2023-02-05T05:49:30.435Z,100196.00
2023-02-05T05:51:56.933Z,100190.31
2023-02-05T05:54:23.473Z,100189.78
2023-02-05T05:56:50.042Z,100181.69
2023-02-05T05:59:16.906Z,100181.41
2023-02-05T06:01:43.523Z,100173.88
2023-02-05T06:04:10.086Z,100166.31
2023-02-05T06:06:36.712Z,100170.63
2023-02-05T06:09:03.305Z,100155.78
2023-02-05T06:11:29.823Z,100157.41
2023-02-05T06:13:56.357Z,100164.69
2023-02-05T06:16:22.895Z,100159.56
2023-02-05T06:21:26.991Z,100165.22
2023-02-05T06:23:53.546Z,100159.28
2023-02-05T06:26:20.036Z,100164.13
2023-02-05T06:28:46.566Z,100165.25
2023-02-05T06:31:13.166Z,100169.81
2023-02-05T06:33:40.013Z,100170.91
2023-02-05T06:36:07.071Z,100167.66
2023-02-05T06:38:33.586Z,100164.97
2023-02-05T06:41:00.161Z,100173.88
2023-02-05T06:43:27.080Z,100168.47
2023-02-05T06:45:53.753Z,100163.63
2023-02-05T06:48:20.262Z,100178.97
2023-02-05T06:50:46.780Z,100184.13
2023-02-05T06:53:13.467Z,100177.63
2023-02-05T06:58:18.625Z,100189.78
2023-02-05T07:00:45.282Z,100183.84
2023-02-05T07:03:11.910Z,100181.97
2023-02-05T07:05:38.400Z,100182.22
2023-02-05T07:08:06.847Z,100183.84
2023-02-05T07:10:33.584Z,100200.31
2023-02-05T07:13:00.114Z,100206.78
2023-02-05T07:15:26.625Z,100205.97
2023-02-05T07:17:53.158Z,100209.47
2023-02-05T07:20:19.898Z,100199.75
2023-02-05T07:22:47.308Z,100194.63
2023-02-05T07:25:13.996Z,100188.97
2023-02-05T07:27:40.631Z,100182.47
2023-02-05T07:30:07.738Z,100186.25
2023-02-05T07:32:34.255Z,100179.50
2023-02-05T07:35:00.901Z,100170.41
2023-02-05T07:37:27.454Z,100172.09
2023-02-05T07:39:53.986Z,100177.56
2023-02-05T07:42:20.603Z,100178.09
2023-02-05T07:44:47.410Z,100177.56
2023-02-05T07:47:13.933Z,100173.25
2023-02-05T07:49:40.428Z,100168.97
2023-02-05T07:52:07.026Z,100165.69
2023-02-05T07:54:33.672Z,100162.19
2023-02-05T07:57:01.922Z,100165.97
2023-02-05T07:59:28.590Z,100174.06
2023-02-05T08:01:55.232Z,100173.25
2023-02-05T08:04:21.767Z,100163.00
2023-02-05T08:06:48.268Z,100160.28
2023-02-05T08:09:14.826Z,100151.09
2023-02-05T08:11:41.386Z,100157.03
2023-02-05T08:14:08.083Z,100157.06
2023-02-05T08:16:34.875Z,100161.41
2023-02-05T08:19:01.393Z,100155.47
2023-02-05T08:21:27.955Z,100167.31
2023-02-05T08:23:57.567Z,100161.66
2023-02-05T08:26:24.314Z,100167.06
2023-02-05T08:28:50.817Z,100166.75
2023-02-05T08:31:19.436Z,100157.06
2023-02-05T08:33:47.854Z,100164.34
2023-02-05T08:36:14.453Z,100160.81
2023-02-05T08:38:41.020Z,100154.56
2023-02-05T08:41:12.799Z,100143.50
2023-02-05T08:43:47.559Z,100152.09
2023-02-05T08:48:59.238Z,100138.91
2023-02-05T08:51:25.803Z,100136.47
2023-02-05T08:53:53.592Z,100126.50
2023-02-05T08:56:20.499Z,100124.84
2023-02-05T09:01:20.675Z,100118.03
2023-02-05T09:03:48.018Z,100107.00
2023-02-05T09:06:16.521Z,100100.75
2023-02-05T09:08:43.586Z,100092.06
2023-02-05T09:13:41.481Z,100093.50
2023-02-05T09:16:11.330Z,100089.09
2023-02-05T09:21:16.562Z,100092.00
2023-02-05T09:23:43.080Z,100093.66
2023-02-05T09:26:09.695Z,100095.28
2023-02-05T09:31:16.204Z,100100.69
2023-02-05T09:33:45.456Z,100088.00
2023-02-05T09:36:18.974Z,100075.28
2023-02-05T09:38:45.976Z,100079.88
2023-02-05T09:41:12.566Z,100077.88
2023-02-05T09:43:39.194Z,100068.66
2023-02-05T09:46:14.554Z,100073.38
2023-02-05T09:51:25.778Z,100061.69
2023-02-05T09:56:28.565Z,100041.13
2023-02-05T10:01:45.325Z,100046.25
2023-02-05T10:10:05.015Z,100063.78
2023-02-05T10:13:13.454Z,100054.84
2023-02-05T10:15:51.719Z,100055.38
2023-02-05T10:18:24.173Z,100054.66
2023-02-05T10:21:00.934Z,100048.16
2023-02-05T10:23:43.182Z,100044.41
2023-02-05T10:26:14.014Z,100043.53
2023-02-05T10:28:47.028Z,100038.94
2023-02-05T10:31:16.413Z,100039.81
2023-02-05T10:33:50.325Z,100030.88
2023-02-05T10:36:22.015Z,100029.81
2023-02-05T10:38:51.066Z,100027.66
2023-02-05T10:41:52.881Z,100018.59
2023-02-05T10:44:22.224Z,100019.78
2023-02-05T10:46:55.252Z,100007.41
2023-02-05T10:49:44.382Z,100005.00
2023-02-05T10:52:12.994Z,100000.31
2023-02-05T10:54:40.609Z,99998.81
2023-02-05T10:57:13.766Z,99991.25
2023-02-05T11:02:39.282Z,99995.69
2023-02-05T11:07:58.783Z,99996.19
2023-02-05T11:10:28.522Z,99989.97
2023-02-05T11:13:01.750Z,99989.16
2023-02-05T11:15:31.045Z,99988.28
2023-02-05T11:18:04.987Z,99979.97
2023-02-05T11:20:40.561Z,99968.00
2023-02-05T11:23:21.220Z,99963.16
2023-02-05T11:26:06.979Z,99958.78
2023-02-05T11:28:39.903Z,99959.63
2023-02-05T11:31:27.175Z,99958.63
2023-02-05T11:34:08.941Z,99951.25
2023-02-05T11:36:47.673Z,99959.03
2023-02-05T11:39:27.636Z,99953.78
2023-02-05T11:41:56.759Z,99956.44
2023-02-05T11:47:09.652Z,99947.88
2023-02-05T11:52:13.887Z,99947.50
2023-02-05T11:54:46.229Z,99938.56
2023-02-05T12:00:18.122Z,99926.47
2023-02-05T12:02:44.818Z,99929.19
2023-02-05T12:05:13.998Z,99921.63
2023-02-05T12:07:58.722Z,99924.50
2023-02-05T12:10:32.869Z,99915.72
2023-02-05T12:13:03.300Z,99922.25
2023-02-05T12:15:41.869Z,99919.59
2023-02-05T12:18:29.583Z,99919.34
2023-02-05T12:21:15.674Z,99914.31
2023-02-05T12:23:57.447Z,99915.13
2023-02-05T12:26:45.368Z,99914.91
2023-02-05T12:29:22.875Z,99909.47
2023-02-05T12:31:59.164Z,99907.13
2023-02-05T12:35:04.689Z,99910.94
2023-02-05T12:43:40.292Z,99913.06
2023-02-05T12:46:32.358Z,99918.06
2023-02-05T12:49:15.727Z,99908.06
2023-02-05T12:51:54.109Z,99908.50
2023-02-05T12:54:46.350Z,99899.63
2023-02-05T12:57:20.587Z,99904.75
2023-02-05T12:59:55.048Z,99905.84
2023-02-05T13:02:36.803Z,99892.97
2023-02-05T13:05:34.008Z,99888.41
2023-02-05T13:08:31.024Z,99889.69
2023-02-05T13:11:07.060Z,99887.88
2023-02-05T13:13:48.167Z,99887.41
2023-02-05T13:19:10.004Z,99883.69
2023-02-05T13:21:55.361Z,99876.28
2023-02-05T13:25:06.199Z,99882.34
2023-02-05T13:27:56.904Z,99881.47
2023-02-05T13:33:08.338Z,99890.53
2023-02-05T13:35:49.638Z,99879.41
2023-02-05T13:38:55.098Z,99873.06
2023-02-05T13:41:47.133Z,99872.06
2023-02-05T13:44:28.752Z,99868.09
2023-02-05T13:47:07.219Z,99874.25
2023-02-05T13:49:50.878Z,99876.66
2023-02-05T13:52:20.182Z,99870.59
2023-02-05T13:55:16.406Z,99874.38
2023-02-05T13:58:10.817Z,99872.56
2023-02-05T14:00:40.441Z,99874.25
2023-02-05T14:03:09.883Z,99866.28
2023-02-05T14:08:29.658Z,99857.53
2023-02-05T14:11:02.490Z,99868.66
2023-02-05T14:13:34.653Z,99869.91
2023-02-05T14:16:32.926Z,99872.50
2023-02-05T14:18:59.389Z,99862.09
2023-02-05T14:21:31.718Z,99864.88
2023-02-05T14:24:03.262Z,99867.66
2023-02-05T14:26:49.245Z,99857.69
2023-02-05T14:29:45.021Z,99870.69
2023-02-05T14:32:12.586Z,99864.50
2023-02-05T14:34:39.082Z,99859.59
2023-02-05T14:37:05.863Z,99870.16
2023-02-05T14:39:34.198Z,99869.56
2023-02-05T14:42:05.474Z,99874.66
2023-02-05T14:44:34.880Z,99868.31
2023-02-05T14:47:04.153Z,99865.91
2023-02-05T14:49:33.553Z,99871.38
2023-02-05T14:52:27.032Z,99869.25
2023-02-05T14:55:01.081Z,99875.63
2023-02-05T14:57:39.136Z,99878.88
2023-02-05T15:00:21.840Z,99878.59
2023-02-05T15:02:55.758Z,99873.25
2023-02-05T15:05:41.558Z,99872.03
2023-02-05T15:11:12.066Z,99872.47
2023-02-05T15:13:38.849Z,99877.09
2023-02-05T15:16:11.127Z,99880.00
2023-02-05T15:18:58.713Z,99877.81
2023-02-05T15:21:33.537Z,99884.59
2023-02-05T15:24:22.349Z,99888.91
2023-02-05T15:27:05.902Z,99895.44
2023-02-05T15:29:43.734Z,99889.28
2023-02-05T15:35:12.677Z,99896.81
2023-02-05T15:37:46.176Z,99893.66
2023-02-05T15:40:20.155Z,99902.19
2023-02-05T15:42:53.275Z,99896.13
2023-02-05T15:45:27.314Z,99894.88
2023-02-05T15:48:11.556Z,99897.88
2023-02-05T15:50:47.579Z,99905.34
2023-02-05T15:53:33.132Z,99898.91
2023-02-05T15:56:25.020Z,99908.91
2023-02-05T15:58:55.117Z,99906.22
2023-02-05T16:01:24.400Z,99911.09
2023-02-05T16:03:51.104Z,99912.69
2023-02-05T16:06:20.086Z,99915.13
2023-02-05T16:08:48.825Z,99921.00
2023-02-05T16:11:33.541Z,99930.66
2023-02-05T16:14:05.513Z,99929.63
2023-02-05T16:16:34.982Z,99926.41
2023-02-05T16:19:06.120Z,99925.63
2023-02-05T16:21:46.054Z,99933.94
2023-02-05T16:24:27.196Z,99935.16
2023-02-05T16:27:11.571Z,99940.00
2023-02-05T16:29:47.965Z,99938.44
2023-02-05T16:35:33.980Z,99954.38
2023-02-05T16:38:02.236Z,99943.50
2023-02-05T16:40:55.096Z,99945.50
2023-02-05T16:43:35.539Z,99948.75
2023-02-05T16:46:07.842Z,99959.69
2023-02-05T16:48:41.794Z,99954.53
2023-02-05T16:51:35.468Z,99965.44
2023-02-05T16:54:11.165Z,99962.81
2023-02-05T16:56:47.506Z,99967.63
2023-02-05T17:01:59.744Z,99974.41
2023-02-05T17:04:35.762Z,99984.09
2023-02-05T17:07:04.464Z,99983.03
2023-02-05T17:09:36.832Z,99978.16
2023-02-05T17:12:21.644Z,99981.59
2023-02-05T17:15:04.776Z,99984.88
2023-02-05T17:17:31.992Z,99987.31
2023-02-05T17:20:05.828Z,99989.84
2023-02-05T17:22:34.560Z,99985.56
2023-02-05T17:25:02.218Z,99985.31
2023-02-05T17:27:36.475Z,99983.31
2023-02-05T17:30:05.400Z,99985.59
2023-02-05T17:32:32.828Z,99981.44
2023-02-05T17:35:00.554Z,99997.69
2023-02-05T17:37:27.294Z,99998.59
2023-02-05T17:39:55.647Z,99993.44
2023-02-05T17:42:24.611Z,99987.53
2023-02-05T17:44:51.868Z,99986.97
2023-02-05T17:47:19.089Z,99993.81
2023-02-05T17:49:46.127Z,100004.34
2023-02-05T17:52:12.745Z,100002.50
2023-02-05T17:54:39.925Z,100005.56
2023-02-05T17:57:20.710Z,100001.97
2023-02-05T17:59:48.222Z,100003.06
2023-02-05T18:02:16.011Z,100002.84
2023-02-05T18:04:44.845Z,99997.69
2023-02-05T18:07:26.769Z,100002.94
2023-02-05T18:09:53.304Z,100002.56
2023-02-05T18:12:19.814Z,100005.69
2023-02-05T18:17:20.191Z,100009.59
2023-02-05T18:19:46.744Z,100016.03
2023-02-05T18:22:13.558Z,100029.97
2023-02-05T18:24:40.303Z,100030.78
2023-02-05T18:27:12.130Z,100034.34
2023-02-05T18:29:39.824Z,100045.16
2023-02-05T18:32:07.451Z,100041.06
2023-02-05T18:37:08.077Z,100050.56
2023-02-05T18:39:34.610Z,100057.06
2023-02-05T18:42:01.499Z,100064.41
2023-02-05T18:44:28.280Z,100061.47
2023-02-05T18:46:54.807Z,100062.63
2023-02-05T18:49:21.376Z,100058.91
2023-02-05T18:51:47.976Z,100063.25
2023-02-05T18:54:14.637Z,100066.03
2023-02-05T18:56:41.206Z,100068.88
2023-02-05T18:59:09.722Z,100067.03
2023-02-05T19:01:38.539Z,100060.56
2023-02-05T19:04:14.622Z,100066.44
2023-02-05T19:06:42.683Z,100067.03
2023-02-05T19:09:09.352Z,100071.66
2023-02-05T19:11:40.991Z,100082.88
2023-02-05T19:14:11.433Z,100095.38
2023-02-05T19:16:39.602Z,100094.84
2023-02-05T19:19:07.176Z,100090.75
2023-02-05T19:21:34.675Z,100095.13
2023-02-05T19:24:05.677Z,100091.28
2023-02-05T19:26:33.655Z,100099.94
2023-02-05T19:29:03.293Z,100106.78
2023-02-05T19:31:33.369Z,100105.44
2023-02-05T19:34:00.998Z,100096.09
2023-02-05T19:36:29.132Z,100092.44
2023-02-05T19:38:56.528Z,100098.38
2023-02-05T19:41:26.476Z,100108.59
2023-02-05T19:43:56.518Z,100102.06
2023-02-05T19:46:25.733Z,100104.72
2023-02-05T19:48:53.301Z,100105.88
2023-02-05T19:51:20.470Z,100110.53
2023-02-05T19:53:47.603Z,100124.91
2023-02-05T19:56:19.994Z,100130.53
2023-02-05T19:58:49.182Z,100129.22
2023-02-05T20:04:12.389Z,100129.59
2023-02-05T20:06:39.688Z,100137.16
2023-02-05T20:11:45.344Z,100147.22
2023-02-05T20:14:12.377Z,100155.91
2023-02-05T20:16:42.369Z,100164.53
2023-02-05T20:19:12.807Z,100174.78
2023-02-05T20:21:39.632Z,100175.34
2023-02-05T20:24:07.497Z,100180.44
2023-02-05T20:26:35.360Z,100180.72
2023-02-05T20:29:20.622Z,100181.22
2023-02-05T20:31:49.615Z,100180.16
2023-02-05T20:37:02.387Z,100191.25
2023-02-05T20:39:29.756Z,100177.44
2023-02-05T20:41:58.279Z,100184.22
2023-02-05T20:44:26.376Z,100187.19
2023-02-05T20:46:53.121Z,100179.03
2023-02-05T20:49:19.815Z,100180.72
2023-02-05T20:51:47.102Z,100177.44
2023-02-05T20:54:13.783Z,100173.66
2023-02-05T20:56:40.328Z,100181.16
2023-02-05T20:59:09.321Z,100174.66
2023-02-05T21:01:37.454Z,100177.91
2023-02-05T21:04:05.632Z,100174.75
2023-02-05T21:06:34.966Z,100179.59
2023-02-05T21:09:02.016Z,100185.31
2023-02-05T21:14:08.147Z,100185.03
2023-02-05T21:16:36.421Z,100185.03
2023-02-05T21:19:05.733Z,100190.16
2023-02-05T21:21:35.508Z,100200.13
2023-02-05T21:24:04.975Z,100204.88
2023-02-05T21:26:38.070Z,100216.22
2023-02-05T21:29:07.759Z,100220.03
2023-02-05T21:31:39.501Z,100219.56
2023-02-05T21:34:09.097Z,100219.03
2023-02-05T21:36:35.698Z,100217.72
2023-02-05T21:39:02.392Z,100228.25
2023-02-05T21:41:29.030Z,100239.09
2023-02-05T21:43:59.030Z,100252.81
2023-02-05T21:46:27.587Z,100245.50
2023-02-05T21:48:55.824Z,100249.84
2023-02-05T21:51:24.539Z,100248.28
2023-02-05T21:53:59.435Z,100256.09
2023-02-05T21:56:29.325Z,100253.66
2023-02-05T21:58:56.247Z,100248.53
2023-02-05T22:01:27.931Z,100257.19
2023-02-05T22:03:57.545Z,100261.50
2023-02-05T22:06:26.430Z,100264.75
2023-02-05T22:08:53.202Z,100261.25
2023-02-05T22:11:21.658Z,100269.59
2023-02-05T22:13:50.697Z,100259.34
2023-02-05T22:16:19.012Z,100262.34
2023-02-05T22:18:46.073Z,100264.50
2023-02-05T22:21:18.673Z,100270.94
2023-02-05T22:23:50.828Z,100272.03
2023-02-05T22:26:23.284Z,100290.41
2023-02-05T22:28:50.708Z,100291.22
2023-02-05T22:31:20.427Z,100292.06
2023-02-05T22:33:48.870Z,100293.41
2023-02-05T22:36:17.933Z,100305.56
2023-02-05T22:38:44.684Z,100303.41
2023-02-05T22:41:15.440Z,100306.13
2023-02-05T22:43:42.379Z,100306.63
2023-02-05T22:46:12.018Z,100311.47
2023-02-05T22:48:40.570Z,100315.81
2023-02-05T22:51:11.123Z,100325.53
2023-02-05T22:53:37.692Z,100329.06
2023-02-05T22:56:06.893Z,100334.47
2023-02-05T22:58:34.510Z,100340.13
2023-02-05T23:01:09.667Z,100339.88
2023-02-05T23:03:36.948Z,100340.41
2023-02-05T23:06:16.767Z,100350.94
2023-02-05T23:08:44.288Z,100352.03
2023-02-05T23:13:50.368Z,100344.19
2023-02-05T23:16:21.918Z,100353.38
2023-02-05T23:18:49.421Z,100360.13
2023-02-05T23:21:19.688Z,100350.66
2023-02-05T23:23:46.423Z,100357.97
2023-02-05T23:26:19.129Z,100362.53
2023-02-05T23:28:46.414Z,100355.28
2023-02-05T23:31:13.165Z,100366.06
2023-02-05T23:33:39.894Z,100362.00
2023-02-05T23:36:07.740Z,100367.94
2023-02-05T23:38:34.907Z,100369.28
2023-02-05T23:41:01.815Z,100371.47
2023-02-05T23:43:28.487Z,100377.69
2023-02-05T23:45:55.155Z,100380.63
2023-02-05T23:48:21.705Z,100383.63
2023-02-05T23:50:55.190Z,100391.44
2023-02-05T23:53:21.715Z,100388.19
2023-02-05T23:55:50.136Z,100380.09
2023-02-05T23:58:18.273Z,100379.00
